Time;durP1;ratioP1;P1;durP2;ratioP2;P2;SDS_P1;SDS_P2;PMS_P1;PMS_P2;Temp;Humidity;BMP_temperature;BMP_pressure;BME280_temperature;BME280_humidity;BME280_pressure;Samples;Min_cycle;Max_cycle;Signal;HPM_P1;HPM_P2
2022/04/21 00:04:30;;;;;;;5.90;2.30;;;22.40;52.40;;;;;;220855;1267;22570;-61
2022/04/21 00:09:34;;;;;;;6.90;2.60;;;22.40;52.40;;;;;;220465;1267;24297;-63
2022/04/21 00:14:38;;;;;;;6.30;2.30;;;22.40;52.40;;;;;;220823;1268;24309;-62
2022/04/21 00:19:42;;;;;;;8.70;2.50;;;22.30;52.40;;;;;;220539;1267;22653;-63
2022/04/21 00:24:45;;;;;;;7.40;3.00;;;22.30;52.60;;;;;;220285;1268;24194;-62
2022/04/21 00:29:49;;;;;;;6.60;2.50;;;22.20;52.30;;;;;;220591;1267;23174;-62
2022/04/21 00:34:53;;;;;;;6.30;2.40;;;22.20;52.20;;;;;;220492;1267;22555;-61
2022/04/21 00:39:57;;;;;;;6.30;2.40;;;22.20;52.30;;;;;;220408;1267;25481;-62
2022/04/21 00:45:01;;;;;;;5.30;2.50;;;22.40;52.80;;;;;;220679;1267;22587;-61
2022/04/21 00:50:06;;;;;;;3.80;2.10;;;22.70;51.70;;;;;;220497;1267;25053;-61
2022/04/21 00:55:10;;;;;;;7.60;2.50;;;22.90;51.00;;;;;;220578;1267;22571;-62
2022/04/21 01:00:15;;;;;;;6.20;2.30;;;23.00;50.70;;;;;;220674;1265;22558;-63
2022/04/21 01:05:29;;;;;;;3.90;2.10;;;23.20;50.30;;;;;;220806;1265;24476;-62
2022/04/21 01:10:35;;;;;;;8.30;2.50;;;23.30;50.20;;;;;;220938;1265;24312;-62
2022/04/21 01:15:40;;;;;;;4.70;2.20;;;23.30;50.00;;;;;;220805;1267;22868;-63
2022/04/21 01:20:44;;;;;;;6.80;2.50;;;23.30;50.10;;;;;;220684;1268;24217;-62
2022/04/21 01:25:49;;;;;;;7.30;2.40;;;23.40;49.60;;;;;;220495;1267;25263;-62
2022/04/21 01:30:57;;;;;;;5.10;2.30;;;23.50;49.50;;;;;;220520;1268;22567;-63
2022/04/21 01:36:00;;;;;;;3.90;2.10;;;23.50;49.40;;;;;;220619;1267;22616;-62
2022/04/21 01:41:14;;;;;;;5.70;2.30;;;23.60;49.20;;;;;;220712;1268;25531;-62
2022/04/21 01:46:23;;;;;;;5.40;2.30;;;23.60;49.20;;;;;;220836;1267;24422;-60
2022/04/21 01:51:43;;;;;;;5.60;2.70;;;23.50;49.20;;;;;;220769;1266;22690;-62
2022/04/21 01:56:48;;;;;;;5.40;2.20;;;23.50;49.10;;;;;;220718;1267;25741;-61
2022/04/21 02:01:52;;;;;;;4.80;1.90;;;23.60;49.10;;;;;;220369;1267;22815;-63
2022/04/21 02:06:55;;;;;;;5.80;2.00;;;23.50;49.10;;;;;;220389;1267;22691;-63
2022/04/21 02:11:59;;;;;;;5.20;2.20;;;23.50;49.20;;;;;;220351;1268;22817;-61
2022/04/21 02:17:05;;;;;;;9.30;2.60;;;23.40;49.20;;;;;;220420;1267;22609;-61
2022/04/21 02:22:09;;;;;;;5.40;1.90;;;23.40;49.10;;;;;;220465;1267;25670;-61
2022/04/21 02:27:12;;;;;;;3.80;2.00;;;23.40;49.10;;;;;;220666;1267;24417;-62
2022/04/21 02:32:16;;;;;;;3.50;2.10;;;23.30;49.10;;;;;;220736;1267;22678;-60
2022/04/21 02:37:24;;;;;;;4.20;2.40;;;23.40;49.10;;;;;;220769;1267;23968;-63
2022/04/21 02:42:28;;;;;;;3.50;2.10;;;23.30;49.10;;;;;;220880;1267;24259;-63
2022/04/21 02:47:31;;;;;;;3.80;2.00;;;23.40;49.10;;;;;;220673;1268;22531;-62
2022/04/21 02:52:36;;;;;;;5.60;2.20;;;23.30;49.10;;;;;;220668;1268;22598;-63
2022/04/21 02:57:41;;;;;;;4.30;2.30;;;23.30;49.10;;;;;;220961;1267;22631;-61
2022/04/21 03:02:45;;;;;;;3.40;1.90;;;23.30;49.10;;;;;;220560;1267;25424;-60
2022/04/21 03:07:49;;;;;;;3.80;2.10;;;23.30;49.00;;;;;;220861;1267;24417;-62
2022/04/21 03:12:52;;;;;;;4.10;2.20;;;23.30;49.00;;;;;;220808;1268;23620;-65
2022/04/21 03:17:56;;;;;;;5.20;1.90;;;23.30;48.90;;;;;;220706;1267;22559;-62
2022/04/21 03:28:23;;;;;;;6.00;2.50;;;23.30;48.90;;;;;;220753;1267;25360;-61
2022/04/21 03:33:27;;;;;;;6.70;2.40;;;23.30;48.90;;;;;;220415;1267;22615;-60
2022/04/21 03:38:33;;;;;;;5.20;2.40;;;23.30;48.90;;;;;;220869;1267;25311;-62
2022/04/21 03:43:37;;;;;;;4.20;2.10;;;23.30;49.10;;;;;;220532;1267;23199;-62
2022/04/21 03:48:40;;;;;;;5.50;2.30;;;23.30;48.70;;;;;;220672;1267;22773;-60
2022/04/21 03:53:44;;;;;;;3.70;2.00;;;23.30;48.70;;;;;;220403;1267;24517;-61
2022/04/21 03:58:48;;;;;;;3.90;2.10;;;23.30;48.70;;;;;;220643;1267;25493;-61
2022/04/21 04:03:52;;;;;;;3.90;2.10;;;23.40;48.70;;;;;;220798;1267;22543;-64
2022/04/21 04:14:20;;;;;;;5.30;2.30;;;23.30;48.90;;;;;;220489;1267;24431;-63
2022/04/21 04:19:23;;;;;;;5.90;2.00;;;23.30;48.50;;;;;;220744;1267;25474;-62
2022/04/21 04:24:28;;;;;;;3.80;2.20;;;23.30;48.50;;;;;;220385;1267;555402;-62
2022/04/21 04:29:32;;;;;;;4.30;2.10;;;23.30;48.50;;;;;;220787;1267;24257;-62
2022/04/21 04:34:39;;;;;;;4.20;1.90;;;23.40;48.60;;;;;;220853;1267;22595;-62
2022/04/21 04:39:43;;;;;;;3.30;1.80;;;23.40;48.50;;;;;;220895;1267;22649;-62
2022/04/21 04:44:49;;;;;;;6.00;2.10;;;23.30;48.50;;;;;;220795;1267;24428;-62
2022/04/21 04:49:53;;;;;;;4.30;2.20;;;23.40;48.50;;;;;;220680;1266;25452;-62
2022/04/21 04:54:56;;;;;;;4.40;2.60;;;23.30;48.40;;;;;;220720;1268;22662;-62
2022/04/21 05:00:04;;;;;;;4.80;2.50;;;23.30;48.40;;;;;;220517;1267;22587;-62
2022/04/21 05:05:09;;;;;;;4.40;2.30;;;23.30;48.30;;;;;;220650;1267;22528;-61
2022/04/21 05:10:17;;;;;;;3.40;2.30;;;23.40;48.30;;;;;;220440;1267;24847;-61
2022/04/21 05:15:20;;;;;;;5.10;2.40;;;23.40;48.30;;;;;;220774;1267;24368;-62
2022/04/21 05:20:25;;;;;;;5.40;2.60;;;23.30;48.30;;;;;;220929;1267;24213;-62
2022/04/21 05:25:33;;;;;;;3.80;2.40;;;23.30;48.30;;;;;;221018;1267;24245;-61
2022/04/21 05:30:56;;;;;;;5.00;2.30;;;23.40;48.50;;;;;;220906;1267;24358;-61
2022/04/21 05:36:00;;;;;;;3.90;2.20;;;23.40;48.60;;;;;;220369;1267;24587;-63
2022/04/21 05:41:05;;;;;;;4.20;2.20;;;23.40;48.20;;;;;;220277;1267;25487;-60
2022/04/21 05:46:11;;;;;;;3.90;2.00;;;23.50;48.50;;;;;;220513;1267;22594;-62
2022/04/21 05:51:18;;;;;;;3.50;2.10;;;23.50;48.50;;;;;;220394;1267;24501;-61
2022/04/21 05:56:22;;;;;;;6.60;2.50;;;23.50;48.80;;;;;;220703;1267;22541;-61
2022/04/21 06:01:32;;;;;;;14.70;2.40;;;23.50;49.60;;;;;;220542;1267;24244;-59
2022/04/21 06:06:49;;;;;;;6.70;2.30;;;23.40;50.60;;;;;;220011;1267;22541;-61
2022/04/21 06:11:53;;;;;;;9.40;3.10;;;23.30;50.30;;;;;;220635;1268;22787;-58
2022/04/21 06:16:59;;;;;;;5.50;2.70;;;23.20;51.00;;;;;;220082;1267;23928;-58
2022/04/21 06:22:03;;;;;;;8.60;2.70;;;23.20;51.40;;;;;;220828;1266;24379;-59
2022/04/21 06:27:07;;;;;;;11.80;3.00;;;23.10;51.60;;;;;;220709;1267;22640;-62
2022/04/21 06:32:11;;;;;;;11.70;2.60;;;23.10;51.80;;;;;;220333;1267;22544;-63
2022/04/21 06:37:14;;;;;;;8.60;2.40;;;23.10;51.60;;;;;;220113;1267;22698;-61
2022/04/21 06:42:23;;;;;;;5.80;2.30;;;23.00;51.80;;;;;;220813;1267;22666;-60
2022/04/21 06:52:49;;;;;;;27.40;4.30;;;23.00;52.00;;;;;;220807;1266;25287;-69
2022/04/21 06:57:53;;;;;;;9.70;3.60;;;22.90;51.80;;;;;;220740;1268;22676;-66
2022/04/21 07:02:58;;;;;;;10.30;3.10;;;22.90;51.70;;;;;;220614;1267;24209;-68
2022/04/21 07:08:01;;;;;;;8.40;3.00;;;22.80;51.80;;;;;;220398;1267;22601;-68
2022/04/21 07:13:23;;;;;;;8.80;3.40;;;22.80;51.70;;;;;;220284;1267;24425;-70
2022/04/21 07:18:33;;;;;;;7.30;2.90;;;22.80;51.60;;;;;;220598;1267;22524;-68
2022/04/21 07:23:39;;;;;;;7.70;3.30;;;22.70;51.50;;;;;;220248;1270;26680;-69
2022/04/21 07:28:44;;;;;;;8.20;3.50;;;22.80;51.40;;;;;;220894;1267;22714;-65
2022/04/21 07:33:48;;;;;;;8.30;3.50;;;22.70;51.30;;;;;;220894;1267;22554;-65
2022/04/21 07:38:54;;;;;;;11.40;3.90;;;22.70;51.20;;;;;;220456;1267;24294;-69
2022/04/21 07:43:58;;;;;;;11.20;4.30;;;22.70;51.10;;;;;;220761;1267;24404;-67
2022/04/21 07:54:25;;;;;;;7.00;4.00;;;22.60;50.60;;;;;;220827;1267;25100;-70
2022/04/21 07:59:34;;;;;;;11.40;4.60;;;22.60;51.00;;;;;;220706;1267;22707;-70
2022/04/21 08:04:38;;;;;;;7.80;4.40;;;22.60;50.70;;;;;;220976;1267;22557;-72
2022/04/21 08:09:42;;;;;;;8.10;4.30;;;22.60;50.60;;;;;;220674;1267;24212;-69
2022/04/21 08:14:51;;;;;;;6.90;4.10;;;22.50;50.40;;;;;;220322;1267;23402;-68
2022/04/21 08:19:59;;;;;;;10.40;4.30;;;22.50;50.60;;;;;;220638;1267;22548;-69
2022/04/21 08:35:57;;;;;;;7.30;3.70;;;22.40;50.30;;;;;;220630;1267;22611;-70
2022/04/21 08:41:11;;;;;;;9.70;4.70;;;22.40;50.20;;;;;;220788;1267;24275;-69
2022/04/21 08:46:31;;;;;;;8.40;4.30;;;22.40;50.10;;;;;;220540;1267;22529;-70
2022/04/21 08:51:38;;;;;;;8.70;4.10;;;22.40;49.90;;;;;;220656;1267;22549;-69
2022/04/21 08:56:43;;;;;;;7.10;4.10;;;22.40;49.90;;;;;;220862;1267;22551;-69
2022/04/21 09:01:47;;;;;;;6.50;4.20;;;22.30;49.80;;;;;;220750;1267;22538;-68
2022/04/21 09:06:51;;;;;;;7.90;4.30;;;22.50;49.70;;;;;;220645;1267;24408;-70
2022/04/21 09:11:56;;;;;;;9.70;4.20;;;22.80;49.10;;;;;;220406;1267;22814;-69
2022/04/21 09:17:07;;;;;;;7.80;4.10;;;23.00;48.50;;;;;;220991;1267;22590;-69
2022/04/21 09:22:16;;;;;;;6.00;4.20;;;23.00;48.40;;;;;;220922;1267;24282;-69
2022/04/21 09:27:20;;;;;;;6.80;4.60;;;23.10;48.10;;;;;;220948;1267;22816;-71
2022/04/21 09:32:26;;;;;;;5.40;4.00;;;23.20;47.60;;;;;;220436;1268;24253;-71
2022/04/21 09:37:29;;;;;;;8.10;4.40;;;23.30;48.00;;;;;;220373;1267;23061;-69
2022/04/21 09:42:38;;;;;;;5.50;4.10;;;23.30;47.50;;;;;;220777;1267;22554;-72
2022/04/21 09:47:47;;;;;;;6.80;4.30;;;23.50;47.40;;;;;;220532;1267;22541;-73
2022/04/21 09:52:53;;;;;;;7.40;4.90;;;23.50;47.10;;;;;;220844;1267;22731;-69
2022/04/21 09:58:08;;;;;;;7.50;4.50;;;23.50;47.20;;;;;;220646;1267;22626;-71
2022/04/21 10:03:12;;;;;;;6.60;4.00;;;23.50;47.30;;;;;;220541;1267;22642;-70
2022/04/21 10:08:16;;;;;;;9.20;5.00;;;23.50;47.40;;;;;;220631;1267;24363;-68
2022/04/21 10:13:23;;;;;;;7.10;4.90;;;23.40;47.30;;;;;;220701;1267;23909;-70
2022/04/21 10:18:27;;;;;;;6.90;4.90;;;23.40;47.60;;;;;;220844;1267;24240;-71
2022/04/21 10:23:33;;;;;;;7.60;4.90;;;23.40;47.30;;;;;;220815;1267;24422;-71
2022/04/21 10:28:37;;;;;;;7.70;4.80;;;23.40;47.20;;;;;;220993;1267;22570;-71
2022/04/21 10:33:59;;;;;;;6.00;4.40;;;23.40;47.20;;;;;;220462;1267;22597;-72
2022/04/21 10:39:19;;;;;;;7.00;4.60;;;23.40;47.50;;;;;;221042;1267;25605;-70
2022/04/21 10:44:26;;;;;;;8.10;5.10;;;23.40;47.00;;;;;;220799;1267;22675;-70
2022/04/21 10:49:53;;;;;;;5.70;4.20;;;23.40;47.10;;;;;;220666;1268;26379;-71
2022/04/21 11:00:31;;;;;;;7.30;4.50;;;23.30;47.20;;;;;;220383;1266;26710;-71
2022/04/21 11:05:38;;;;;;;6.90;4.90;;;23.30;47.50;;;;;;220784;1268;25239;-71
2022/04/21 11:10:44;;;;;;;6.70;5.00;;;23.30;47.10;;;;;;220626;1267;22569;-69
2022/04/21 11:15:53;;;;;;;7.50;4.90;;;23.40;47.10;;;;;;220644;1268;22637;-70
2022/04/21 11:21:26;;;;;;;7.50;5.00;;;23.40;47.00;;;;;;220784;1267;24213;-69
2022/04/21 11:26:30;;;;;;;6.50;4.40;;;23.40;46.90;;;;;;220479;1266;25298;-68
2022/04/21 11:31:39;;;;;;;6.50;4.70;;;23.40;47.30;;;;;;220811;1267;24272;-70
2022/04/21 11:36:43;;;;;;;6.40;5.00;;;23.40;46.90;;;;;;220490;1267;22613;-69
2022/04/21 11:41:49;;;;;;;6.30;4.70;;;23.40;46.90;;;;;;220735;1267;27113;-71
2022/04/21 11:46:53;;;;;;;6.70;4.80;;;23.40;47.50;;;;;;220833;1267;22548;-69
2022/04/21 11:51:57;;;;;;;8.10;5.00;;;23.40;47.10;;;;;;220574;1268;23222;-70
2022/04/21 11:57:04;;;;;;;8.40;5.10;;;23.50;46.90;;;;;;220551;1267;25661;-69
2022/04/21 12:07:30;;;;;;;7.10;5.00;;;23.40;46.60;;;;;;220616;1267;22528;-71
2022/04/21 12:12:35;;;;;;;7.10;5.00;;;23.50;47.30;;;;;;220289;1267;24212;-70
2022/04/21 12:17:39;;;;;;;7.30;5.30;;;23.40;46.50;;;;;;220606;1268;25406;-70
2022/04/21 12:22:44;;;;;;;6.60;4.80;;;23.50;46.60;;;;;;220554;1267;24209;-70
2022/04/21 12:27:50;;;;;;;7.60;5.00;;;23.50;46.60;;;;;;220693;1267;25459;-69
2022/04/21 12:32:54;;;;;;;8.20;5.40;;;23.40;46.60;;;;;;220364;1267;24272;-68
2022/04/21 12:43:27;;;;;;;7.10;5.20;;;23.30;46.90;;;;;;220225;1267;22761;-68
2022/04/21 12:48:31;;;;;;;6.90;4.60;;;23.30;46.60;;;;;;220507;1268;22614;-69
2022/04/21 12:53:36;;;;;;;9.00;5.60;;;23.30;46.60;;;;;;220864;1268;22842;-69
2022/04/21 12:58:40;;;;;;;7.70;5.30;;;23.30;46.60;;;;;;220592;1268;24386;-69
2022/04/21 13:03:44;;;;;;;7.00;4.80;;;23.30;46.70;;;;;;220784;1268;22550;-68
2022/04/21 13:08:48;;;;;;;7.00;5.00;;;23.30;46.80;;;;;;220565;1267;22613;-69
2022/04/21 13:13:55;;;;;;;7.00;5.00;;;23.20;47.00;;;;;;220261;1267;24531;-70
2022/04/21 13:19:02;;;;;;;7.20;4.80;;;23.20;47.20;;;;;;220287;1267;25386;-70
2022/04/21 13:24:26;;;;;;;6.50;4.80;;;23.30;47.60;;;;;;220631;1267;24986;-69
2022/04/21 13:29:30;;;;;;;6.00;4.70;;;23.20;47.20;;;;;;220774;1268;22557;-71
2022/04/21 13:34:35;;;;;;;6.40;5.00;;;23.20;47.20;;;;;;220549;1267;25543;-73
2022/04/21 13:39:40;;;;;;;6.00;4.60;;;23.20;47.10;;;;;;220585;1267;22725;-69
2022/04/21 13:44:45;;;;;;;6.40;4.50;;;23.20;47.10;;;;;;220373;1267;22574;-70
2022/04/21 13:50:09;;;;;;;6.30;4.50;;;23.20;47.10;;;;;;220809;1267;24375;-72
2022/04/21 13:55:12;;;;;;;8.10;5.20;;;23.20;46.80;;;;;;220681;1268;22564;-70
2022/04/21 14:00:17;;;;;;;7.00;5.10;;;23.10;46.90;;;;;;220317;1270;24476;-69
2022/04/21 14:05:22;;;;;;;6.40;4.90;;;23.10;47.00;;;;;;221499;1267;22537;-69
2022/04/21 14:10:25;;;;;;;6.60;5.00;;;23.00;46.80;;;;;;220723;1267;24299;-70
2022/04/21 14:15:29;;;;;;;6.10;4.60;;;23.00;46.80;;;;;;220664;1268;25385;-72
2022/04/21 14:20:33;;;;;;;6.90;4.80;;;23.00;47.00;;;;;;220482;1268;22544;-70
2022/04/21 14:25:37;;;;;;;6.40;4.80;;;23.00;46.70;;;;;;220455;1267;24257;-71
2022/04/21 14:30:45;;;;;;;5.40;4.10;;;23.00;46.60;;;;;;220599;1267;25232;-71
2022/04/21 14:35:50;;;;;;;5.70;4.70;;;23.00;46.60;;;;;;220609;1267;25333;-69
2022/04/21 14:46:22;;;;;;;6.90;4.90;;;23.00;46.60;;;;;;220649;1270;22533;-72
2022/04/21 14:51:48;;;;;;;6.80;4.90;;;22.90;46.50;;;;;;220687;1270;24828;-72
2022/04/21 14:57:00;;;;;;;12.00;5.40;;;22.90;46.70;;;;;;220639;1267;24281;-71
2022/04/21 15:02:16;;;;;;;8.70;5.40;;;22.90;47.00;;;;;;220296;1268;22690;-72
2022/04/21 15:07:30;;;;;;;6.70;5.10;;;22.90;47.20;;;;;;220498;1268;24383;-70
2022/04/21 15:12:40;;;;;;;8.40;5.00;;;22.80;47.10;;;;;;220492;1270;25250;-70
2022/04/21 15:17:53;;;;;;;10.40;5.50;;;22.90;47.70;;;;;;220027;1269;24459;-74
2022/04/21 15:23:12;;;;;;;10.30;4.80;;;22.90;48.30;;;;;;220311;1268;22540;-70
2022/04/21 15:28:20;;;;;;;7.80;5.30;;;22.90;48.00;;;;;;220463;1270;24262;-64
2022/04/21 15:33:54;;;;;;;;;;;;;;;;;;;;;
2022/04/21 15:39:04;;;;;;;6.50;4.60;;;22.90;47.70;;;;;;220074;1270;22769;-66
2022/04/21 15:44:21;;;;;;;10.10;5.20;;;22.80;48.00;;;;;;219961;1268;25368;-66
2022/04/21 15:49:27;;;;;;;12.50;6.00;;;22.80;48.30;;;;;;220172;1268;22607;-65
2022/04/21 16:00:25;;;;;;;10.30;5.50;;;22.70;48.70;;;;;;220266;1271;24411;-66
2022/04/21 16:05:54;;;;;;;9.70;5.40;;;22.70;48.70;;;;;;220190;1268;25309;-65
2022/04/21 16:11:02;;;;;;;8.50;5.60;;;22.70;49.20;;;;;;220334;1268;24479;-62
2022/04/21 16:16:12;;;;;;;9.40;5.80;;;22.70;48.80;;;;;;220122;1268;25343;-65
2022/04/21 16:21:20;;;;;;;10.20;6.00;;;22.70;48.90;;;;;;220309;1268;371848;-68
2022/04/21 16:26:37;;;;;;;13.50;6.40;;;22.60;48.90;;;;;;220068;1268;22572;-67
2022/04/21 16:31:55;;;;;;;10.90;6.10;;;22.70;49.10;;;;;;220067;1268;24281;-65
2022/04/21 16:37:09;;;;;;;23.70;8.40;;;22.70;49.20;;;;;;220323;1268;22528;-63
2022/04/21 16:42:33;;;;;;;;;;;;;;;;;;;;;
2022/04/21 16:47:45;;;;;;;22.50;8.30;;;22.60;49.70;;;;;;219951;1271;22535;-63
2022/04/21 16:52:58;;;;;;;24.60;8.40;;;22.60;49.80;;;;;;220350;1268;25036;-66
2022/04/21 16:58:19;;;;;;;;;;;;;;;;;;;;;
2022/04/21 17:03:25;;;;;;;21.50;8.50;;;22.60;49.90;;;;;;220396;1268;25770;-65
2022/04/21 17:08:40;;;;;;;18.80;7.80;;;22.60;50.10;;;;;;220376;1268;22561;-66
2022/04/21 17:14:12;;;;;;;17.90;8.00;;;22.60;49.80;;;;;;220543;1268;22530;-62
2022/04/21 17:19:16;;;;;;;21.80;8.30;;;22.60;49.80;;;;;;220465;1268;23325;-64
2022/04/21 17:24:20;;;;;;;15.90;7.90;;;22.60;49.80;;;;;;220522;1268;24325;-65
2022/04/21 17:29:26;;;;;;;20.00;8.00;;;22.60;49.50;;;;;;220009;1269;22528;-62
2022/04/21 17:34:30;;;;;;;19.40;7.30;;;22.60;49.60;;;;;;220053;1268;24577;-61
2022/04/21 17:39:44;;;;;;;14.60;7.80;;;22.60;49.60;;;;;;220265;1268;24503;-60
2022/04/21 17:44:52;;;;;;;20.30;7.80;;;22.50;49.90;;;;;;220720;1268;22555;-63
2022/04/21 17:49:56;;;;;;;17.40;8.10;;;22.50;49.30;;;;;;220705;1268;22557;-71
2022/04/21 17:55:00;;;;;;;19.10;7.90;;;22.60;49.10;;;;;;220569;1268;22654;-72
2022/04/21 18:00:05;;;;;;;14.30;7.40;;;22.60;49.50;;;;;;220413;1268;22815;-75
2022/04/21 18:05:11;;;;;;;19.80;9.00;;;22.50;49.10;;;;;;220467;1268;24205;-75
2022/04/21 18:10:16;;;;;;;19.70;9.70;;;22.50;49.10;;;;;;220491;1268;22999;-66
2022/04/21 18:15:22;;;;;;;21.30;11.40;;;22.50;49.20;;;;;;219758;1267;23217;-59
2022/04/21 18:20:26;;;;;;;24.60;10.30;;;22.50;49.70;;;;;;219799;1267;23225;-58
2022/04/21 18:25:30;;;;;;;19.00;9.70;;;22.40;50.00;;;;;;220405;1269;24427;-62
2022/04/21 18:30:47;;;;;;;19.00;10.40;;;22.40;50.70;;;;;;220857;1268;22702;-60
2022/04/21 18:36:02;;;;;;;21.10;10.80;;;22.40;51.30;;;;;;220211;1267;25090;-57
2022/04/21 18:41:08;;;;;;;25.60;12.40;;;22.40;52.10;;;;;;220688;1267;22682;-59
2022/04/21 18:46:11;;;;;;;20.40;12.50;;;22.40;52.40;;;;;;220235;1267;24150;-60
2022/04/21 18:51:52;;;;;;;21.60;12.70;;;22.50;53.00;;;;;;220433;1267;25768;-62
2022/04/21 18:57:00;;;;;;;23.60;12.80;;;22.50;53.40;;;;;;220220;1267;25412;-60
2022/04/21 19:02:09;;;;;;;25.60;14.50;;;22.50;53.10;;;;;;220590;1267;22701;-61
2022/04/21 19:07:15;;;;;;;21.10;13.40;;;22.50;53.50;;;;;;220864;1268;26114;-61
2022/04/21 19:12:21;;;;;;;19.10;13.40;;;22.50;53.40;;;;;;220688;1268;25488;-59
2022/04/21 19:17:29;;;;;;;22.20;12.70;;;22.50;53.60;;;;;;220542;1267;25162;-62
2022/04/21 19:22:42;;;;;;;25.60;12.70;;;22.50;52.50;;;;;;220657;1267;22571;-60
2022/04/21 19:28:00;;;;;;;18.60;11.40;;;22.50;52.50;;;;;;219875;1266;23931;-62
2022/04/21 19:33:08;;;;;;;24.40;11.30;;;22.50;52.60;;;;;;220176;1267;25299;-62
2022/04/21 19:38:38;;;;;;;27.00;11.60;;;22.50;52.10;;;;;;219907;1267;24615;-62
2022/04/21 19:43:45;;;;;;;24.50;11.60;;;22.50;52.10;;;;;;220322;1266;22531;-62
2022/04/21 19:48:51;;;;;;;19.60;10.90;;;22.50;51.90;;;;;;220208;1265;25017;-60
2022/04/21 19:53:54;;;;;;;24.30;11.30;;;22.40;52.00;;;;;;220445;1267;24287;-66
2022/04/21 19:58:58;;;;;;;18.60;11.40;;;22.40;52.00;;;;;;220767;1267;22589;-70
2022/04/21 20:04:03;;;;;;;22.80;12.60;;;22.30;52.00;;;;;;220372;1267;26593;-67
2022/04/21 20:09:27;;;;;;;23.00;12.10;;;22.30;53.30;;;;;;220590;1268;22578;-68
2022/04/21 20:14:43;;;;;;;22.60;13.10;;;22.20;53.10;;;;;;220928;1268;25391;-69
2022/04/21 20:31:18;;;;;;;22.90;13.40;;;22.10;54.50;;;;;;220706;1267;23261;-69
2022/04/21 20:36:28;;;;;;;27.60;14.10;;;22.10;54.70;;;;;;220805;1267;24218;-70
2022/04/21 20:41:33;;;;;;;27.50;13.50;;;22.10;56.80;;;;;;220099;1267;24204;-68
2022/04/21 20:46:39;;;;;;;26.60;13.80;;;22.40;57.00;;;;;;220024;1268;22587;-66
2022/04/21 20:51:46;;;;;;;29.40;14.10;;;22.70;57.50;;;;;;220232;1267;22797;-65
2022/04/21 20:56:52;;;;;;;27.40;14.10;;;22.90;58.00;;;;;;220394;1267;22541;-65
2022/04/21 21:02:02;;;;;;;24.50;12.80;;;23.00;57.10;;;;;;220161;1267;26710;-67
2022/04/21 21:07:15;;;;;;;21.60;12.20;;;23.10;57.50;;;;;;220626;1267;25394;-68
2022/04/21 21:12:24;;;;;;;22.30;12.30;;;23.20;57.50;;;;;;220493;1268;22599;-69
2022/04/21 21:17:27;;;;;;;23.30;13.40;;;23.20;57.50;;;;;;220763;1268;22976;-67
2022/04/21 21:22:53;;;;;;;24.10;13.20;;;23.20;57.70;;;;;;220739;1267;23374;-67
2022/04/21 21:28:03;;;;;;;20.40;12.30;;;23.40;58.60;;;;;;220482;1267;22830;-64
2022/04/21 21:33:08;;;;;;;22.10;12.50;;;23.50;58.60;;;;;;220736;1267;22552;-66
2022/04/21 21:38:21;;;;;;;19.50;12.00;;;23.60;58.70;;;;;;220997;1268;23871;-64
2022/04/21 21:43:32;;;;;;;20.30;11.80;;;23.70;57.70;;;;;;220682;1268;26363;-66
2022/04/21 21:54:03;;;;;;;22.30;12.80;;;23.90;57.80;;;;;;220275;1267;25311;-68
2022/04/21 21:59:19;;;;;;;22.00;13.70;;;23.90;57.70;;;;;;220456;1267;25364;-69
2022/04/21 22:04:30;;;;;;;21.80;12.20;;;23.90;57.10;;;;;;220680;1267;25435;-66
2022/04/21 22:09:35;;;;;;;21.10;12.20;;;23.80;57.40;;;;;;220604;1267;22540;-67
2022/04/21 22:14:47;;;;;;;19.40;11.10;;;23.80;57.60;;;;;;220812;1267;24415;-65
2022/04/21 22:19:54;;;;;;;19.40;11.70;;;23.70;57.30;;;;;;220526;1268;24411;-65
2022/04/21 22:25:00;;;;;;;18.50;12.00;;;23.70;57.50;;;;;;220506;1267;22564;-66
2022/04/21 22:30:29;;;;;;;19.30;11.50;;;23.70;57.70;;;;;;220312;1267;22766;-70
2022/04/21 22:35:40;;;;;;;18.90;12.40;;;23.60;57.70;;;;;;220236;1268;24320;-60
2022/04/21 22:40:52;;;;;;;21.00;13.20;;;23.50;57.50;;;;;;220597;1267;24245;-59
2022/04/21 22:45:56;;;;;;;22.50;13.70;;;23.40;57.50;;;;;;220300;1268;22712;-59
2022/04/21 22:51:01;;;;;;;21.80;13.70;;;23.30;58.00;;;;;;220500;1267;22919;-60
2022/04/21 22:56:06;;;;;;;20.80;14.00;;;23.30;58.30;;;;;;220450;1267;24343;-61
2022/04/21 23:01:09;;;;;;;21.70;13.70;;;23.20;58.90;;;;;;220537;1267;22527;-58
2022/04/21 23:06:13;;;;;;;23.20;12.60;;;23.10;57.80;;;;;;220334;1268;25419;-59
2022/04/21 23:16:50;;;;;;;20.50;14.00;;;23.00;58.20;;;;;;220521;1267;22716;-60
2022/04/21 23:21:56;;;;;;;20.00;13.40;;;23.00;57.70;;;;;;220820;1267;22785;-59
2022/04/21 23:27:04;;;;;;;20.00;12.20;;;22.90;58.00;;;;;;220451;1267;22560;-60
2022/04/21 23:32:08;;;;;;;20.90;13.50;;;22.90;57.40;;;;;;220705;1267;22706;-60
2022/04/21 23:37:12;;;;;;;22.50;13.80;;;22.90;57.30;;;;;;220344;1267;25313;-61
2022/04/21 23:42:16;;;;;;;19.10;12.50;;;22.80;57.70;;;;;;220793;1267;24408;-60
2022/04/21 23:47:20;;;;;;;19.50;11.80;;;22.80;57.30;;;;;;220860;1267;25392;-59
2022/04/21 23:52:24;;;;;;;17.90;12.20;;;22.80;57.70;;;;;;220846;1268;22717;-60
2022/04/21 23:57:28;;;;;;;18.20;12.50;;;22.70;57.20;;;;;;220634;1267;24189;-61
